Beloit, KS (67420)

4:14 PM CDT on July 23, 2016 (GMT -0500)
Farmway Fertilizer Plant | | Change Station
Active Advisory: Excessive Heat Warning

Elev 1398 ft 39.45 °N, 98.10 °W | Updated 7 seconds ago

Clear
Clear
99.3 °F
Feels Like 99 °F
N
12.1
Wind Variable Wind from South
Gusts 12.3 mph

Today
High -- | Low -- °F
--% Chance of Precip.
Yesterday
High -- | Low -- °F
Precip. -- in
Pressure 29.76 in
Visibility 10.0 miles
Clouds Clear
Heat Index 99 °F
Dew Point 57 °F
Humidity 25%
Rainfall 0.13 in
Snow Depth Not available.
6:24 AM 8:52 PM
Waning Gibbous, 82% visible
METAR KCNK 232055Z AUTO 19013G24KT 10SM CLR 37/19 A2982 RMK AO2 SLP076 T03670194 58012
Pressure 29.76 in
Visibility 10.0 miles
Clouds Clear
Heat Index 99 °F
Dew Point 57 °F
Humidity 25%
Rainfall 0.13 in
Snow Depth Not available.
6:24 AM 8:52 PM
Waning Gibbous, 82% visible
METAR KCNK 232055Z AUTO 19013G24KT 10SM CLR 37/19 A2982 RMK AO2 SLP076 T03670194 58012

10-Day Weather Forecast

Almanac

Astronomy

Jul. 23, 2016 Rise Set
Actual Time
Civil Twilight
Nautical Twilight
Astronomical Twilight
Moon
Length of Visible Light
Length of Day
Tomorrow will be .
, % of the Moon is Illuminated

Today's Extremes

State Highs State Lows

Community

WunderPhotos

Upload Photos

1,926,927 photos uploaded!

WunderBlog® & News

Nearby

Air Quality

  Air Quality AQ Index Pollutant
Not available.

Snow Depth

Station Depth Elevation

Earthquake Activity

City Distance Mag. Time & Date
Minimum magnitude displayed is 2.5.

Coastal Water Temperatures

Place Temperature

Stations

Nearby Weather Stations

Station Location Temp. Windchill Dew Point Humidity Wind Precip. Elev Updated Type
                   

Watches & Warnings

Excessive Heat Warning
Issued: 11:28 AM CDT Jul. 23, 2016 – National Weather Service

... Excessive heat warning remains in effect until 7 PM CDT this
evening...

* heat index... although variable cloud cover may help to hold
values down a bit in some places... the majority of the warning
area is expected to see peak heat index values between 100 and
106 degrees this afternoon into early this evening.

* Impacts... the cumulative effects of the recent prolonged stretch
of heat and humidity could result in a potentially dangerous
situation which could promote heat-related illnesses.

Precautionary/preparedness actions...

An excessive heat warning means that a prolonged period of
dangerously hot temperatures will occur. The combination of hot
temperatures and high humidity will combine to create a dangerous
situation in which heat illnesses are likely. Drink plenty of
fluids... stay in an air-conditioned room... stay out of the sun...
and check up on relatives and neighbors.



Pfannkuch